Aviation Digital Data Service (ADDS)

Output produced by METARs form (1315 UTC 19 July 2018)
found at http://www.aviationweather.gov/adds/metars/
 
K2G4 191300Z AUTO 11008KT 10SM CLR 16/11 A3018 RMK AO1
K2G4 191240Z AUTO 11006KT 10SM CLR 16/11 A3018 RMK AO1
K2G4 191220Z AUTO 10007KT 10SM CLR 16/10 A3017 RMK AO1
K2G4 191200Z AUTO 11005KT 10SM CLR 16/10 A3017 RMK AO1
K2G4 191140Z AUTO 10004KT 10SM CLR 16/10 A3016 RMK AO1
K2G4 191120Z AUTO 09005KT 10SM CLR 16/10 A3016 RMK AO1
K2G4 191100Z AUTO 08003KT 10SM CLR 15/09 A3016 RMK AO1
K2G4 191040Z AUTO 00000KT 10SM CLR 15/09 A3016 RMK AO1
K2G4 191020Z AUTO 00000KT 10SM CLR 14/08 A3016 RMK AO1
K2G4 191000Z AUTO 00000KT 10SM CLR 14/08 A3016 RMK AO1
K2G4 190940Z AUTO 00000KT 10SM CLR 15/08 A3016 RMK AO1
K2G4 190920Z AUTO 00000KT 10SM CLR 15/08 A3016 RMK AO1
K2G4 190900Z AUTO 00000KT 10SM CLR 15/08 A3015 RMK AO1
K2G4 190840Z AUTO 00000KT 10SM CLR 15/08 A3014 RMK AO1
K2G4 190820Z AUTO 00000KT 10SM CLR 13/08 A3015 RMK AO1
K2G4 190800Z AUTO 00000KT 10SM CLR 15/09 A3015 RMK AO1
K2G4 190740Z AUTO 00000KT 10SM CLR 15/08 A3015 RMK AO1
K2G4 190720Z AUTO 00000KT 10SM CLR 15/08 A3015 RMK AO1
K2G4 190700Z AUTO 00000KT 10SM CLR 15/09 A3015 RMK AO1
K2G4 190640Z AUTO 00000KT 10SM CLR 15/09 A3014 RMK AO1
K2G4 190620Z AUTO 31003KT 10SM CLR 15/08 A3014 RMK AO1
K2G4 190600Z AUTO 00000KT 10SM CLR 15/08 A3015 RMK AO1
K2G4 190540Z AUTO 27003KT 10SM CLR 15/08 A3015 RMK AO1
K2G4 190520Z AUTO 00000KT 10SM CLR 15/08 A3015 RMK AO1
K2G4 190500Z AUTO 00000KT 10SM CLR 16/08 A3014 RMK AO1
K2G4 190440Z AUTO 00000KT 10SM CLR 15/08 A3014 RMK AO1
K2G4 190420Z AUTO 00000KT 10SM CLR 16/08 A3014 RMK AO1
K2G4 190400Z AUTO 00000KT 10SM CLR 16/08 A3014 RMK AO1
K2G4 190340Z AUTO 00000KT 10SM CLR 16/08 A3014 RMK AO1
K2G4 190320Z AUTO 00000KT 10SM CLR 16/08 A3014 RMK AO1
K2G4 190300Z AUTO 00000KT 10SM CLR 16/09 A3014 RMK AO1
K2G4 190240Z AUTO 00000KT 10SM CLR 16/09 A3014 RMK AO1
K2G4 190220Z AUTO 00000KT 10SM CLR 16/08 A3013 RMK AO1
K2G4 190200Z AUTO 00000KT 10SM CLR 16/08 A3013 RMK AO1
K2G4 190140Z AUTO 32003KT 10SM CLR 16/08 A3012 RMK AO1
K2G4 190120Z AUTO 00000KT 10SM CLR 16/09 A3012 RMK AO1
K2G4 190100Z AUTO 00000KT 10SM CLR 16/09 A3011 RMK AO1
K2G4 190040Z AUTO 31003KT 10SM CLR 16/09 A3011 RMK AO1
K2G4 190020Z AUTO 32003KT 10SM CLR 17/10 A3011 RMK AO1
K2G4 190000Z AUTO 00000KT 10SM CLR 18/10 A3011 RMK AO1
K2G4 182340Z AUTO 00000KT 10SM CLR 18/10 A3011 RMK AO1
K2G4 182320Z AUTO 32003KT 10SM CLR 18/10 A3011 RMK AO1
K2G4 182300Z AUTO 36005KT 10SM CLR 19/11 A3011 RMK AO1
K2G4 182240Z AUTO 00000KT 10SM CLR 18/11 A3011 RMK AO1
K2G4 182220Z AUTO 29003KT 10SM CLR 19/10 A3011 RMK AO1
K2G4 182200Z AUTO 34005KT 10SM CLR 20/10 A3011 RMK AO1
K2G4 182140Z AUTO 32003KT 10SM CLR 20/10 A3011 RMK AO1
K2G4 182120Z AUTO 35005KT 10SM CLR 20/10 A3011 RMK AO1
K2G4 182100Z AUTO 33003KT 10SM CLR 20/10 A3011 RMK AO1
K2G4 182040Z AUTO 32003KT 10SM CLR 18/10 A3011 RMK AO1
K2G4 182020Z AUTO 35006KT 10SM CLR 20/09 A3011 RMK AO1
K2G4 182000Z AUTO 32006KT 10SM CLR 21/10 A3011 RMK AO1
K2G4 181940Z AUTO 32005KT 10SM SCT043 21/10 A3011 RMK AO1
K2G4 181920Z AUTO 32006KT 10SM SCT041 20/10 A3012 RMK AO1
K2G4 181900Z AUTO 31006KT 10SM SCT039 20/10 A3012 RMK AO1
K2G4 181840Z AUTO 33004KT 10SM BKN039 19/10 A3012 RMK AO1
K2G4 181820Z AUTO 32004KT 10SM SCT041 18/11 A3012 RMK AO1
K2G4 181800Z AUTO 31006KT 10SM SCT041 20/10 A3012 RMK AO1
K2G4 181740Z AUTO 33007KT 10SM SCT038 20/10 A3012 RMK AO1
K2G4 181720Z AUTO 32005KT 10SM SCT038 19/10 A3012 RMK AO1
K2G4 181700Z AUTO 31006KT 10SM SCT038 19/09 A3012 RMK AO1
K2G4 181640Z AUTO 35005KT 10SM SCT035 18/09 A3013 RMK AO1
K2G4 181620Z AUTO 32005KT 10SM SCT033 18/10 A3013 RMK AO1
K2G4 181600Z AUTO 36006KT 10SM CLR 18/10 A3013 RMK AO1
K2G4 181540Z AUTO 33006KT 10SM CLR 18/10 A3013 RMK AO1
K2G4 181520Z AUTO 33005KT 10SM CLR 17/09 A3013 RMK AO1
K2G4 181500Z AUTO 35006KT 322V032 10SM CLR 17/10 A3012 RMK AO1
K2G4 181440Z AUTO 34007KT 312V032 10SM CLR 17/11 A3012 RMK AO1
K2G4 181420Z AUTO 32007KT 10SM CLR 16/11 A3012 RMK AO1
K2G4 181400Z AUTO 33005KT 10SM CLR 16/12 A3012 RMK AO1
K2G4 181340Z AUTO 33006KT 10SM CLR 15/12 A3012 RMK AO1
K2G4 181320Z AUTO 34006KT 10SM CLR 15/12 A3011 RMK AO1